Time;durP1;ratioP1;P1;durP2;ratioP2;P2;SDS_P1;SDS_P2;PMS_P1;PMS_P2;Temp;Humidity;BMP_temperature;BMP_pressure;BME280_temperature;BME280_humidity;BME280_pressure;Samples;Min_cycle;Max_cycle;Signal;HPM_P1;HPM_P2
2023/09/10 00:00:52;;;;;;;95.88;68.63;;;19.10;99.90;;;;;;4972940;28;20216;-71
2023/09/10 00:03:19;;;;;;;96.30;70.70;;;19.10;99.90;;;;;;4960849;28;20619;-71
2023/09/10 00:05:44;;;;;;;92.13;68.82;;;19.10;99.90;;;;;;4966790;28;20212;-74
2023/09/10 00:08:10;;;;;;;90.85;66.22;;;19.00;99.90;;;;;;4972518;28;20554;-71
2023/09/10 00:10:37;;;;;;;102.05;71.15;;;19.00;99.90;;;;;;4972219;28;20182;-71
2023/09/10 00:13:03;;;;;;;98.18;71.85;;;19.00;99.90;;;;;;4971011;28;20213;-71
2023/09/10 00:15:29;;;;;;;97.35;72.97;;;19.00;99.90;;;;;;4967126;28;20273;-70
2023/09/10 00:17:55;;;;;;;90.57;67.10;;;19.00;99.90;;;;;;4963244;28;20683;-71
2023/09/10 00:20:21;;;;;;;103.43;72.80;;;19.00;99.90;;;;;;4971951;28;20200;-72
2023/09/10 00:22:47;;;;;;;109.30;73.85;;;19.00;99.90;;;;;;4970081;28;20313;-71
2023/09/10 00:25:13;;;;;;;107.50;75.40;;;19.00;99.90;;;;;;4970204;28;20221;-70
2023/09/10 00:27:39;;;;;;;108.38;74.28;;;18.90;99.90;;;;;;4967452;28;20233;-69
2023/09/10 00:30:06;;;;;;;103.32;74.05;;;18.90;99.90;;;;;;4956118;28;20194;-71
2023/09/10 00:32:32;;;;;;;101.10;72.90;;;18.90;99.90;;;;;;4965704;28;20194;-71
2023/09/10 00:34:58;;;;;;;96.18;69.35;;;18.90;99.90;;;;;;4960307;28;20212;-73
2023/09/10 00:37:24;;;;;;;100.03;70.35;;;18.90;99.90;;;;;;4966346;28;20186;-70
2023/09/10 00:39:50;;;;;;;93.22;68.50;;;18.90;99.90;;;;;;4969751;28;20272;-69
2023/09/10 00:42:17;;;;;;;97.60;71.05;;;18.90;99.90;;;;;;4958693;28;20638;-70
2023/09/10 00:44:43;;;;;;;101.10;70.82;;;18.90;99.90;;;;;;4971098;28;20194;-71
2023/09/10 00:47:10;;;;;;;91.93;69.90;;;18.90;99.90;;;;;;4965917;28;20182;-71
2023/09/10 00:49:36;;;;;;;94.28;68.97;;;18.90;99.90;;;;;;4969165;28;20643;-71
2023/09/10 00:52:04;;;;;;;98.88;69.47;;;18.80;99.90;;;;;;4970237;28;20528;-72
2023/09/10 00:54:34;;;;;;;99.35;70.72;;;18.80;99.90;;;;;;4970219;28;20182;-70
2023/09/10 00:57:02;;;;;;;97.65;73.57;;;18.80;99.90;;;;;;4969435;28;20319;-71
2023/09/10 00:59:29;;;;;;;98.57;73.50;;;18.80;99.90;;;;;;4973186;28;20673;-73
2023/09/10 01:01:57;;;;;;;101.85;73.28;;;18.80;99.90;;;;;;4955060;28;20201;-70
2023/09/10 01:04:23;;;;;;;109.05;75.07;;;18.80;99.90;;;;;;4970496;28;20224;-73
2023/09/10 01:06:53;;;;;;;106.68;77.47;;;18.80;99.90;;;;;;4987211;28;20185;-70
2023/09/10 01:09:19;;;;;;;100.93;75.78;;;18.80;99.90;;;;;;4972847;28;20193;-70
2023/09/10 01:12:04;;;;;;;99.15;71.85;;;18.80;99.90;;;;;;4975249;28;20265;-72
2023/09/10 01:15:11;;;;;;;94.38;69.88;;;18.70;99.90;;;;;;4975223;28;20273;-70
2023/09/10 01:17:45;;;;;;;95.55;70.35;;;18.70;99.90;;;;;;4969520;28;20233;-73
2023/09/10 01:20:26;;;;;;;99.32;72.25;;;18.70;99.90;;;;;;4967387;28;20789;-71
2023/09/10 01:23:14;;;;;;;107.35;75.50;;;18.70;99.90;;;;;;4961068;28;20213;-70
2023/09/10 01:25:40;;;;;;;105.30;76.43;;;18.60;99.90;;;;;;4969194;28;20193;-70
2023/09/10 01:28:07;;;;;;;103.60;73.85;;;18.70;99.90;;;;;;4969986;28;20244;-71
2023/09/10 01:30:33;;;;;;;108.80;77.45;;;18.70;99.90;;;;;;4970948;28;20264;-72
2023/09/10 01:33:26;;;;;;;110.90;79.95;;;18.70;99.90;;;;;;4974934;28;20301;-70
2023/09/10 01:36:11;;;;;;;107.32;77.25;;;18.70;99.90;;;;;;4977831;28;20202;-71
2023/09/10 01:38:46;;;;;;;109.10;75.53;;;18.60;99.90;;;;;;4970093;28;20174;-70
2023/09/10 01:41:19;;;;;;;112.10;78.43;;;18.60;99.90;;;;;;4972573;28;20193;-71
2023/09/10 01:43:46;;;;;;;119.40;82.45;;;18.60;99.90;;;;;;4972467;28;20214;-71
2023/09/10 01:46:13;;;;;;;106.20;78.60;;;18.60;99.90;;;;;;4974817;28;20221;-71
2023/09/10 01:48:40;;;;;;;126.30;84.88;;;18.60;99.90;;;;;;4969134;28;20346;-71
2023/09/10 01:51:06;;;;;;;128.63;87.53;;;18.60;99.90;;;;;;4970131;28;20814;-73
2023/09/10 01:53:32;;;;;;;126.88;83.93;;;18.60;99.90;;;;;;4972710;28;20190;-71
2023/09/10 01:55:58;;;;;;;123.72;83.75;;;18.60;99.90;;;;;;4964850;28;20274;-71
2023/09/10 01:58:24;;;;;;;125.97;86.40;;;18.60;99.90;;;;;;4982382;28;20186;-72
2023/09/10 02:00:50;;;;;;;121.15;84.68;;;18.60;99.90;;;;;;4968204;28;22160;-70
2023/09/10 02:03:16;;;;;;;126.50;85.85;;;18.60;99.90;;;;;;4971977;28;20213;-71
2023/09/10 02:05:42;;;;;;;127.13;85.45;;;18.60;99.90;;;;;;4974324;28;20634;-70
2023/09/10 02:08:09;;;;;;;123.95;87.47;;;18.60;99.90;;;;;;4970696;28;20186;-74
2023/09/10 02:10:35;;;;;;;133.50;87.03;;;18.50;99.90;;;;;;4970253;28;20268;-74
2023/09/10 02:13:03;;;;;;;117.47;84.32;;;18.50;99.90;;;;;;4972035;28;20181;-72
2023/09/10 02:15:29;;;;;;;122.10;84.47;;;18.50;99.90;;;;;;4974511;28;20635;-73
2023/09/10 02:17:56;;;;;;;125.05;83.78;;;18.50;99.90;;;;;;4960192;28;20244;-71
2023/09/10 02:20:22;;;;;;;117.85;81.68;;;18.50;99.90;;;;;;4968192;28;20232;-74
2023/09/10 02:22:48;;;;;;;118.63;82.53;;;18.50;99.90;;;;;;4968721;28;20309;-72
2023/09/10 02:25:15;;;;;;;119.88;85.85;;;18.50;99.90;;;;;;4967439;28;20281;-72
2023/09/10 02:27:42;;;;;;;123.32;84.85;;;18.50;99.90;;;;;;4973991;28;20186;-73
2023/09/10 02:30:08;;;;;;;123.78;86.57;;;18.50;99.90;;;;;;4966498;28;20237;-75
2023/09/10 02:32:38;;;;;;;123.05;86.32;;;18.50;99.90;;;;;;4965841;28;20190;-75
2023/09/10 02:35:04;;;;;;;131.35;88.45;;;18.50;99.90;;;;;;4972190;28;20208;-73
2023/09/10 02:37:31;;;;;;;117.63;83.30;;;18.50;99.90;;;;;;4972684;28;20186;-77
2023/09/10 02:39:57;;;;;;;118.93;83.07;;;18.50;99.90;;;;;;4972688;28;20263;-76
2023/09/10 02:42:23;;;;;;;117.40;82.57;;;18.50;99.90;;;;;;4969609;28;20631;-74
2023/09/10 02:44:49;;;;;;;117.75;83.70;;;18.50;99.90;;;;;;4988937;28;20194;-76
2023/09/10 02:47:15;;;;;;;126.07;85.20;;;18.50;99.90;;;;;;4973914;28;20189;-77
2023/09/10 02:49:41;;;;;;;122.40;89.65;;;18.40;99.90;;;;;;4973305;28;20234;-73
2023/09/10 02:52:07;;;;;;;133.88;89.35;;;18.40;99.90;;;;;;4962718;28;20694;-69
2023/09/10 02:54:35;;;;;;;132.55;92.70;;;18.40;99.90;;;;;;4969335;28;20190;-71
2023/09/10 02:57:01;;;;;;;148.90;100.55;;;18.40;99.90;;;;;;4988269;28;20186;-73
2023/09/10 02:59:27;;;;;;;140.52;100.13;;;18.40;99.90;;;;;;4973404;28;20190;-74
2023/09/10 03:01:53;;;;;;;144.43;99.55;;;18.40;99.90;;;;;;4971647;28;20193;-74
2023/09/10 03:04:20;;;;;;;147.18;102.07;;;18.40;99.90;;;;;;4968127;28;20216;-72
2023/09/10 03:06:48;;;;;;;162.35;106.45;;;18.40;99.90;;;;;;4956270;28;20681;-71
2023/09/10 03:09:14;;;;;;;151.50;104.57;;;18.40;99.90;;;;;;4965681;28;20206;-72
2023/09/10 03:11:43;;;;;;;157.63;110.38;;;18.40;99.90;;;;;;4956550;28;20270;-73
2023/09/10 03:14:09;;;;;;;158.60;107.40;;;18.40;99.90;;;;;;4964527;28;20587;-71
2023/09/10 03:16:38;;;;;;;153.30;105.80;;;18.40;99.90;;;;;;4971372;28;20730;-71
2023/09/10 03:19:05;;;;;;;156.95;106.03;;;18.40;99.90;;;;;;4971626;28;20710;-70
2023/09/10 03:21:31;;;;;;;156.27;105.68;;;18.40;99.90;;;;;;4968149;28;20272;-70
2023/09/10 03:23:58;;;;;;;150.55;104.40;;;18.40;99.90;;;;;;4961034;28;20232;-71
2023/09/10 03:26:25;;;;;;;149.20;102.60;;;18.30;99.90;;;;;;4970834;28;20249;-71
2023/09/10 03:28:51;;;;;;;142.88;102.18;;;18.30;99.90;;;;;;4955585;28;20650;-69
2023/09/10 03:31:17;;;;;;;145.75;99.72;;;18.30;99.90;;;;;;4971631;28;20690;-71
2023/09/10 03:33:44;;;;;;;141.50;95.57;;;18.30;99.90;;;;;;4963723;28;20187;-70
2023/09/10 03:36:11;;;;;;;137.00;94.05;;;18.30;99.90;;;;;;4963045;28;20634;-70
2023/09/10 03:38:37;;;;;;;138.63;94.93;;;18.30;99.90;;;;;;4967647;28;20217;-71
2023/09/10 03:41:03;;;;;;;138.15;95.75;;;18.30;99.90;;;;;;4971196;28;20200;-70
2023/09/10 03:43:30;;;;;;;143.32;97.47;;;18.30;99.90;;;;;;4970899;28;20693;-72
2023/09/10 03:45:57;;;;;;;146.27;96.93;;;18.30;99.90;;;;;;4971067;28;20252;-71
2023/09/10 03:48:23;;;;;;;134.70;94.28;;;18.30;99.90;;;;;;4969984;28;20651;-70
2023/09/10 03:50:49;;;;;;;136.95;94.53;;;18.30;99.90;;;;;;4967574;28;20189;-73
2023/09/10 03:53:17;;;;;;;139.40;93.55;;;18.30;99.90;;;;;;4970664;28;20562;-71
2023/09/10 03:55:43;;;;;;;140.52;93.50;;;18.30;99.90;;;;;;4971459;28;20277;-71
2023/09/10 03:58:10;;;;;;;134.23;92.57;;;18.30;99.90;;;;;;4969403;28;20602;-72
2023/09/10 04:00:36;;;;;;;138.65;92.72;;;18.30;99.90;;;;;;4964452;28;20212;-71
2023/09/10 04:03:04;;;;;;;143.88;96.05;;;18.30;99.90;;;;;;4971882;28;20209;-71
2023/09/10 04:05:30;;;;;;;141.93;96.93;;;18.30;99.90;;;;;;4972302;28;20196;-71
2023/09/10 04:07:56;;;;;;;145.00;98.88;;;18.30;99.90;;;;;;4972546;28;20186;-71
2023/09/10 04:10:22;;;;;;;150.70;97.30;;;18.20;99.90;;;;;;4967494;28;20735;-73
2023/09/10 04:12:50;;;;;;;146.05;98.68;;;18.30;99.90;;;;;;4968457;28;20286;-70
2023/09/10 04:15:16;;;;;;;136.00;92.97;;;18.20;99.90;;;;;;4971238;28;20197;-71
2023/09/10 04:17:42;;;;;;;138.90;95.05;;;18.20;99.90;;;;;;4971997;28;20280;-70
2023/09/10 04:20:09;;;;;;;140.70;95.60;;;18.20;99.90;;;;;;4968515;28;20241;-70
2023/09/10 04:22:36;;;;;;;140.68;93.22;;;18.20;99.90;;;;;;4971531;28;20204;-69
2023/09/10 04:25:03;;;;;;;131.38;91.75;;;18.20;99.90;;;;;;4971896;28;20220;-71
2023/09/10 04:27:29;;;;;;;132.05;93.05;;;18.20;99.90;;;;;;4973870;28;20643;-70
2023/09/10 04:29:57;;;;;;;135.07;91.40;;;18.20;99.90;;;;;;4989495;28;20194;-71
2023/09/10 04:32:23;;;;;;;132.20;89.95;;;18.20;99.90;;;;;;4984756;28;20187;-72
2023/09/10 04:34:49;;;;;;;128.23;89.63;;;18.20;99.90;;;;;;4970167;28;20197;-71
2023/09/10 04:37:15;;;;;;;123.78;88.68;;;18.20;99.90;;;;;;4974424;28;20214;-71
2023/09/10 04:39:41;;;;;;;131.68;87.07;;;18.20;99.90;;;;;;4974792;28;20532;-71
2023/09/10 04:42:07;;;;;;;133.45;89.88;;;18.10;99.90;;;;;;4968880;28;20643;-71
2023/09/10 04:44:34;;;;;;;131.98;91.22;;;18.10;99.90;;;;;;4974027;28;20245;-72
2023/09/10 04:47:01;;;;;;;133.02;90.60;;;18.10;99.90;;;;;;4969540;28;20270;-71
2023/09/10 04:49:27;;;;;;;132.65;88.97;;;18.10;99.90;;;;;;4958667;28;20198;-72
2023/09/10 04:51:53;;;;;;;130.68;87.78;;;18.10;99.90;;;;;;4971786;28;20567;-71
2023/09/10 04:54:19;;;;;;;123.78;86.22;;;18.10;99.90;;;;;;4970959;28;20224;-72
2023/09/10 04:56:50;;;;;;;123.32;86.57;;;18.10;99.90;;;;;;4974031;28;20214;-71
2023/09/10 04:59:16;;;;;;;128.80;86.80;;;18.10;99.90;;;;;;4954356;28;20204;-72
2023/09/10 05:01:42;;;;;;;120.15;82.38;;;18.10;99.90;;;;;;4973279;28;20229;-71
2023/09/10 05:04:08;;;;;;;122.28;81.97;;;18.00;99.90;;;;;;4972764;28;20237;-71
2023/09/10 05:06:36;;;;;;;124.97;85.07;;;18.00;99.90;;;;;;4968551;28;20216;-71
2023/09/10 05:09:02;;;;;;;127.63;89.25;;;18.10;99.90;;;;;;4972896;28;20213;-71
2023/09/10 05:11:28;;;;;;;123.45;82.55;;;18.00;99.90;;;;;;4962162;28;20638;-71
2023/09/10 05:13:54;;;;;;;123.15;82.65;;;18.10;99.90;;;;;;4973779;28;20190;-72
2023/09/10 05:16:20;;;;;;;121.90;86.90;;;18.00;99.90;;;;;;4973497;28;20186;-73
2023/09/10 05:18:47;;;;;;;126.13;85.90;;;18.10;99.90;;;;;;4969789;28;20686;-72
2023/09/10 05:21:15;;;;;;;128.70;83.10;;;18.10;99.90;;;;;;4969093;28;20214;-73
2023/09/10 05:23:41;;;;;;;120.45;83.32;;;18.00;99.90;;;;;;4971555;28;20257;-71
2023/09/10 05:26:07;;;;;;;121.38;81.70;;;18.10;99.90;;;;;;4965790;28;20186;-72
2023/09/10 05:28:33;;;;;;;121.68;82.93;;;18.10;99.90;;;;;;4961971;28;20190;-71
2023/09/10 05:31:04;;;;;;;119.78;80.78;;;18.10;99.90;;;;;;4974265;28;20709;-72
2023/09/10 05:33:31;;;;;;;120.88;83.35;;;18.10;99.90;;;;;;4989006;28;20245;-71
2023/09/10 05:35:58;;;;;;;122.32;84.07;;;18.10;99.90;;;;;;4970356;28;20228;-69
2023/09/10 05:38:26;;;;;;;120.32;81.40;;;18.20;99.90;;;;;;4965402;28;20245;-70
2023/09/10 05:40:54;;;;;;;107.85;77.45;;;18.20;99.90;;;;;;4973649;28;20221;-71
2023/09/10 05:43:20;;;;;;;108.38;76.40;;;18.20;99.90;;;;;;4974109;28;20359;-74
2023/09/10 05:45:46;;;;;;;110.63;78.55;;;18.20;99.90;;;;;;4957150;28;20231;-71
2023/09/10 05:48:12;;;;;;;109.05;76.47;;;18.20;99.90;;;;;;4971431;28;20257;-71
2023/09/10 05:50:42;;;;;;;104.38;73.90;;;18.30;99.90;;;;;;4965120;28;20190;-70
2023/09/10 05:53:08;;;;;;;101.68;74.00;;;18.30;99.90;;;;;;4971779;28;20281;-66
2023/09/10 05:55:39;;;;;;;102.63;74.88;;;18.30;99.90;;;;;;4971561;28;20189;-70
2023/09/10 05:58:05;;;;;;;108.88;72.75;;;18.40;99.90;;;;;;4973153;28;20214;-69
2023/09/10 06:00:31;;;;;;;102.18;72.03;;;18.40;99.90;;;;;;4973029;28;20186;-72
2023/09/10 06:02:57;;;;;;;107.82;73.35;;;18.50;99.90;;;;;;4953464;28;20706;-70
2023/09/10 06:05:23;;;;;;;102.35;72.45;;;18.50;99.90;;;;;;4972068;28;20186;-70
2023/09/10 06:07:49;;;;;;;99.78;71.25;;;18.60;99.90;;;;;;4972628;28;20186;-70
2023/09/10 06:10:15;;;;;;;100.35;70.53;;;18.70;99.90;;;;;;4969169;28;20189;-70
2023/09/10 06:12:43;;;;;;;92.00;66.55;;;18.70;99.90;;;;;;4969407;28;20178;-71
2023/09/10 06:15:09;;;;;;;98.00;67.53;;;18.80;99.90;;;;;;4974186;28;20193;-70
2023/09/10 06:17:36;;;;;;;87.45;64.60;;;18.80;99.90;;;;;;4970424;28;20277;-71
2023/09/10 06:20:04;;;;;;;93.57;65.10;;;18.90;99.90;;;;;;4972996;28;20264;-71
2023/09/10 06:22:30;;;;;;;88.68;63.80;;;18.90;99.90;;;;;;4950731;28;20185;-72
2023/09/10 06:24:56;;;;;;;87.15;62.42;;;19.00;99.90;;;;;;4961090;28;20673;-71
2023/09/10 06:27:23;;;;;;;81.18;60.35;;;19.10;99.90;;;;;;4970145;28;20189;-71
2023/09/10 06:29:49;;;;;;;84.18;60.67;;;19.10;99.90;;;;;;4963526;28;20240;-71
2023/09/10 06:32:15;;;;;;;75.82;58.35;;;19.20;99.90;;;;;;4974151;28;20188;-70
2023/09/10 06:34:41;;;;;;;78.43;56.55;;;19.20;99.90;;;;;;4984609;28;20651;-70
2023/09/10 06:37:08;;;;;;;77.60;56.95;;;19.30;99.90;;;;;;4986144;28;20183;-72
2023/09/10 06:39:38;;;;;;;73.32;55.45;;;19.40;99.90;;;;;;4964043;28;20193;-70
2023/09/10 06:42:07;;;;;;;73.47;54.90;;;19.40;99.90;;;;;;4967325;28;20173;-70
2023/09/10 06:44:43;;;;;;;76.25;54.63;;;19.40;99.90;;;;;;4975415;28;20295;-71
2023/09/10 06:47:12;;;;;;;72.00;53.38;;;19.50;99.90;;;;;;4971671;28;20226;-72
2023/09/10 06:49:38;;;;;;;73.18;53.05;;;19.50;99.90;;;;;;4963565;28;20205;-70
2023/09/10 06:52:05;;;;;;;69.80;52.92;;;19.60;99.90;;;;;;4985945;28;20193;-71
2023/09/10 06:54:32;;;;;;;69.22;53.72;;;19.70;99.90;;;;;;4974637;28;20221;-71
2023/09/10 06:56:58;;;;;;;70.55;51.00;;;19.70;99.90;;;;;;4974046;28;20642;-72
2023/09/10 06:59:24;;;;;;;78.10;53.60;;;19.70;99.90;;;;;;4971746;28;20175;-71
2023/09/10 07:01:50;;;;;;;76.88;56.17;;;19.80;99.90;;;;;;4971059;28;20193;-70
2023/09/10 07:04:19;;;;;;;82.65;58.58;;;19.90;99.90;;;;;;4970719;28;20724;-71
2023/09/10 07:06:46;;;;;;;80.45;59.03;;;19.90;99.90;;;;;;4978152;28;20247;-72
2023/09/10 07:09:13;;;;;;;87.53;62.38;;;19.90;99.90;;;;;;4967524;28;20213;-71
2023/09/10 07:11:39;;;;;;;76.22;56.05;;;20.00;99.90;;;;;;4967299;28;20209;-71
2023/09/10 07:14:05;;;;;;;75.97;54.25;;;20.10;99.90;;;;;;4983830;28;20196;-73
2023/09/10 07:16:34;;;;;;;67.30;50.72;;;20.10;99.90;;;;;;4992583;28;20185;-70
2023/09/10 07:19:00;;;;;;;67.50;52.30;;;20.20;99.90;;;;;;4975712;28;20712;-71
2023/09/10 07:21:27;;;;;;;70.28;51.63;;;20.30;99.90;;;;;;4988269;28;20196;-72
2023/09/10 07:23:53;;;;;;;80.07;55.05;;;20.40;99.90;;;;;;4981413;28;20220;-71
2023/09/10 07:26:20;;;;;;;73.15;51.95;;;20.50;99.90;;;;;;4951177;28;20276;-69
2023/09/10 07:28:46;;;;;;;73.55;52.50;;;20.50;99.90;;;;;;4968048;28;20549;-70
2023/09/10 07:31:11;;;;;;;66.78;50.00;;;20.60;99.90;;;;;;4991863;28;20181;-70
2023/09/10 07:33:37;;;;;;;64.88;50.22;;;20.70;99.90;;;;;;4984368;28;20196;-71
2023/09/10 07:36:04;;;;;;;65.43;49.42;;;20.70;99.90;;;;;;4969514;28;20189;-70
2023/09/10 07:38:29;;;;;;;66.72;48.75;;;20.80;99.90;;;;;;4967540;28;20341;-72
2023/09/10 07:40:55;;;;;;;66.13;49.10;;;20.90;99.90;;;;;;4966822;28;20615;-66
2023/09/10 07:43:23;;;;;;;63.97;48.70;;;21.00;99.90;;;;;;4971471;28;20576;-71
2023/09/10 07:45:49;;;;;;;62.70;45.63;;;21.10;99.90;;;;;;4967790;28;20202;-71
2023/09/10 07:48:16;;;;;;;57.72;44.50;;;21.20;99.90;;;;;;4970993;28;20190;-77
2023/09/10 07:50:58;;;;;;;62.42;45.22;;;21.30;99.90;;;;;;4976332;28;20192;-74
2023/09/10 07:53:24;;;;;;;57.90;45.60;;;21.40;99.90;;;;;;4977661;28;20185;-73
2023/09/10 07:55:51;;;;;;;57.70;44.47;;;21.50;99.90;;;;;;4972818;28;20669;-71
2023/09/10 07:58:17;;;;;;;60.10;46.08;;;21.60;99.90;;;;;;4983597;28;20189;-70
2023/09/10 08:00:43;;;;;;;56.85;44.90;;;21.70;99.90;;;;;;4967217;28;20688;-71
2023/09/10 08:03:09;;;;;;;50.53;40.08;;;21.80;99.90;;;;;;4974318;28;20213;-71
2023/09/10 08:05:35;;;;;;;46.90;37.25;;;21.80;99.90;;;;;;4972974;28;20233;-70
2023/09/10 08:08:05;;;;;;;49.30;34.05;;;21.90;99.90;;;;;;4971162;28;20622;-72
2023/09/10 08:10:32;;;;;;;38.03;30.40;;;22.00;99.90;;;;;;4970117;28;21590;-70
2023/09/10 08:12:59;;;;;;;35.30;29.23;;;22.00;99.90;;;;;;4971877;28;20543;-69
2023/09/10 08:15:25;;;;;;;43.10;31.02;;;22.10;99.90;;;;;;4976136;28;20285;-70
2023/09/10 08:17:56;;;;;;;34.55;28.48;;;22.30;99.90;;;;;;4975944;28;20200;-70
2023/09/10 08:20:22;;;;;;;37.15;27.13;;;22.30;99.90;;;;;;4967775;28;20506;-70
2023/09/10 08:22:48;;;;;;;33.13;25.30;;;22.40;99.90;;;;;;4973862;28;20189;-69
2023/09/10 08:25:14;;;;;;;34.80;24.50;;;22.50;99.90;;;;;;4972815;28;20189;-71
2023/09/10 08:27:40;;;;;;;34.53;23.30;;;22.50;99.90;;;;;;4963183;28;20662;-69
2023/09/10 08:30:07;;;;;;;30.10;23.75;;;22.60;99.90;;;;;;4973021;28;20201;-70
2023/09/10 08:32:34;;;;;;;31.55;24.15;;;22.70;99.90;;;;;;4971463;28;20229;-70
2023/09/10 08:35:00;;;;;;;35.47;23.55;;;22.70;99.90;;;;;;4975965;28;20193;-70
2023/09/10 08:37:26;;;;;;;33.28;23.95;;;22.80;99.90;;;;;;4974994;28;20186;-70
2023/09/10 08:39:53;;;;;;;34.40;23.05;;;22.90;99.90;;;;;;4970312;28;20261;-70
2023/09/10 08:42:25;;;;;;;33.75;21.45;;;22.90;99.90;;;;;;4967692;28;20203;-72
2023/09/10 08:44:56;;;;;;;31.98;20.63;;;23.00;99.90;;;;;;4967545;28;20221;-76
2023/09/10 08:47:24;;;;;;;27.60;20.40;;;23.10;99.90;;;;;;4970089;28;20256;-68
2023/09/10 08:49:54;;;;;;;28.13;18.38;;;23.20;99.90;;;;;;4971318;28;20201;-73
2023/09/10 08:52:20;;;;;;;29.55;17.70;;;23.30;99.90;;;;;;4971286;28;20190;-69
2023/09/10 08:54:46;;;;;;;21.00;17.40;;;23.40;99.90;;;;;;4972372;28;20193;-70
2023/09/10 08:57:13;;;;;;;20.00;16.85;;;23.40;99.90;;;;;;4978243;28;20192;-69
2023/09/10 08:59:41;;;;;;;23.70;16.52;;;23.50;99.90;;;;;;4992641;28;20201;-69
2023/09/10 09:02:09;;;;;;;25.88;17.15;;;23.60;99.90;;;;;;4972961;28;20535;-70
2023/09/10 09:04:35;;;;;;;23.23;17.35;;;23.70;99.90;;;;;;4972895;28;20677;-73
2023/09/10 09:07:02;;;;;;;19.27;15.45;;;23.70;99.90;;;;;;4969118;28;20182;-72
2023/09/10 09:09:34;;;;;;;18.13;13.55;;;23.80;99.90;;;;;;4982574;28;20201;-69
2023/09/10 09:12:02;;;;;;;24.92;14.35;;;23.80;99.90;;;;;;4972478;28;20189;-70
2023/09/10 09:14:30;;;;;;;23.60;13.93;;;23.80;99.90;;;;;;4951990;28;20642;-72
2023/09/10 09:16:57;;;;;;;23.13;13.18;;;23.90;99.90;;;;;;4981517;28;20189;-73
2023/09/10 09:19:30;;;;;;;23.13;12.65;;;23.90;99.90;;;;;;4986906;28;20229;-71
2023/09/10 09:21:58;;;;;;;19.70;13.20;;;24.00;99.90;;;;;;4979288;28;20523;-72
2023/09/10 09:24:25;;;;;;;18.08;13.25;;;24.00;99.90;;;;;;4967694;28;20284;-72
2023/09/10 09:26:52;;;;;;;19.10;12.77;;;24.10;99.90;;;;;;4984887;28;20197;-70
2023/09/10 09:29:19;;;;;;;18.83;12.35;;;24.20;99.90;;;;;;4984131;28;20182;-71
2023/09/10 09:31:45;;;;;;;16.33;12.23;;;24.20;99.90;;;;;;4980898;28;20193;-72
2023/09/10 09:34:11;;;;;;;16.35;11.68;;;24.20;99.90;;;;;;4970980;28;20189;-71
2023/09/10 09:36:39;;;;;;;19.65;12.35;;;24.30;99.90;;;;;;4971535;28;20197;-70
2023/09/10 09:39:07;;;;;;;19.58;11.98;;;24.30;99.90;;;;;;4972352;28;20182;-72
2023/09/10 09:41:36;;;;;;;17.42;11.90;;;24.40;99.90;;;;;;4974520;28;20193;-71
2023/09/10 09:44:03;;;;;;;17.27;10.45;;;24.50;99.90;;;;;;4971505;28;20268;-73
2023/09/10 09:46:32;;;;;;;17.75;12.55;;;24.50;99.90;;;;;;4967347;28;20198;-73
2023/09/10 09:48:59;;;;;;;26.13;17.98;;;24.60;99.90;;;;;;4966177;28;20284;-72
2023/09/10 09:51:26;;;;;;;22.20;13.55;;;24.60;99.90;;;;;;4976225;28;20312;-72
2023/09/10 09:53:52;;;;;;;17.80;11.60;;;24.70;99.90;;;;;;4983840;28;20241;-72
2023/09/10 09:56:18;;;;;;;21.73;12.35;;;24.80;99.90;;;;;;4968599;28;20190;-73
2023/09/10 09:58:44;;;;;;;24.58;12.70;;;24.80;99.90;;;;;;4984863;28;20657;-72
2023/09/10 10:01:10;;;;;;;18.25;13.20;;;24.90;99.90;;;;;;4969691;28;20312;-74
2023/09/10 10:03:37;;;;;;;17.73;12.43;;;25.00;99.90;;;;;;4970817;28;20301;-73
2023/09/10 10:06:03;;;;;;;21.48;12.75;;;25.10;99.90;;;;;;4968023;28;20900;-72
2023/09/10 10:08:30;;;;;;;19.80;12.90;;;25.10;99.90;;;;;;4969202;28;20650;-69
2023/09/10 10:10:57;;;;;;;24.02;12.45;;;25.20;99.90;;;;;;4972729;28;20197;-70
2023/09/10 10:13:25;;;;;;;20.10;12.90;;;25.30;99.90;;;;;;4970476;28;20189;-69
2023/09/10 10:15:55;;;;;;;19.98;13.52;;;25.40;99.90;;;;;;4967663;28;20199;-69
2023/09/10 10:18:22;;;;;;;19.75;12.75;;;25.40;99.90;;;;;;4968555;28;20189;-72
2023/09/10 10:20:49;;;;;;;18.80;12.00;;;25.50;99.90;;;;;;4934735;28;1108577;-71
2023/09/10 10:23:17;;;;;;;19.42;12.48;;;25.50;99.90;;;;;;4971135;28;20559;-70
2023/09/10 10:25:45;;;;;;;22.88;15.55;;;25.60;99.90;;;;;;4972508;28;20300;-73
2023/09/10 10:28:12;;;;;;;34.35;16.05;;;25.70;99.90;;;;;;4969041;28;20198;-70
2023/09/10 10:31:07;;;;;;;27.65;15.10;;;25.70;99.90;;;;;;4990452;28;20653;-72
2023/09/10 10:33:35;;;;;;;19.52;13.30;;;25.80;99.90;;;;;;4976077;28;20241;-73
2023/09/10 10:36:16;;;;;;;25.83;12.88;;;25.80;99.90;;;;;;4969312;28;20189;-72
2023/09/10 10:38:44;;;;;;;19.60;12.38;;;25.80;99.90;;;;;;4967578;28;20379;-73
2023/09/10 10:41:14;;;;;;;14.85;12.80;;;25.90;99.90;;;;;;4980507;28;20752;-74
2023/09/10 10:43:45;;;;;;;21.40;12.00;;;25.90;99.90;;;;;;4979976;28;20233;-70
2023/09/10 10:46:12;;;;;;;34.10;13.23;;;26.00;99.90;;;;;;4978269;28;20666;-73
2023/09/10 10:48:39;;;;;;;19.10;12.77;;;26.00;99.90;;;;;;4972314;28;20185;-69
2023/09/10 10:51:10;;;;;;;18.88;12.00;;;26.10;99.90;;;;;;4962791;28;20190;-62
2023/09/10 10:53:36;;;;;;;26.27;11.85;;;26.20;99.90;;;;;;4972365;28;20260;-62
2023/09/10 10:56:04;;;;;;;17.92;11.82;;;26.20;99.90;;;;;;4972454;28;20272;-64
2023/09/10 10:58:37;;;;;;;19.92;11.68;;;26.20;99.90;;;;;;4975154;28;20297;-63
2023/09/10 11:01:03;;;;;;;17.17;10.63;;;26.30;99.90;;;;;;4964295;28;20205;-68
2023/09/10 11:03:31;;;;;;;20.05;11.95;;;26.30;99.90;;;;;;4970196;28;20248;-62
2023/09/10 11:06:04;;;;;;;19.33;11.02;;;26.30;99.90;;;;;;4972456;28;20677;-64
2023/09/10 11:08:36;;;;;;;23.42;11.98;;;26.40;99.90;;;;;;4972520;28;20244;-65
2023/09/10 11:11:04;;;;;;;12.70;10.20;;;26.50;99.90;;;;;;4969521;28;20300;-65
2023/09/10 11:13:32;;;;;;;21.20;10.23;;;26.50;99.90;;;;;;4967166;28;20209;-67
2023/09/10 11:16:04;;;;;;;21.48;10.40;;;26.60;99.90;;;;;;4964849;28;20194;-64
2023/09/10 11:18:36;;;;;;;18.45;11.27;;;26.60;99.90;;;;;;4972227;28;20272;-66
2023/09/10 11:21:03;;;;;;;25.38;10.93;;;26.60;99.90;;;;;;4971849;28;20225;-63
2023/09/10 11:23:30;;;;;;;20.65;11.10;;;26.70;99.90;;;;;;4969556;28;20221;-64
2023/09/10 11:26:29;;;;;;;21.50;11.20;;;26.70;99.90;;;;;;4950602;28;20265;-64
2023/09/10 11:28:57;;;;;;;17.73;10.48;;;26.70;99.90;;;;;;4969787;28;20194;-65
2023/09/10 11:31:38;;;;;;;25.00;11.00;;;26.80;99.90;;;;;;4965624;28;20562;-64
2023/09/10 11:34:23;;;;;;;20.10;10.80;;;26.80;99.90;;;;;;4961219;28;20240;-66
2023/09/10 11:36:55;;;;;;;16.77;11.38;;;26.90;99.90;;;;;;4966955;28;20331;-64
2023/09/10 11:39:22;;;;;;;24.88;12.60;;;26.90;99.90;;;;;;4954772;28;20620;-62
2023/09/10 11:41:50;;;;;;;18.60;11.10;;;26.90;99.90;;;;;;4971989;28;20189;-63
2023/09/10 11:44:16;;;;;;;16.10;10.50;;;27.00;99.90;;;;;;4969941;28;20712;-63
2023/09/10 11:46:43;;;;;;;19.20;10.27;;;27.00;99.90;;;;;;4965308;28;20224;-64
2023/09/10 11:49:09;;;;;;;17.17;11.35;;;27.10;99.90;;;;;;4969169;28;20192;-63
2023/09/10 11:51:48;;;;;;;22.90;10.73;;;27.20;99.90;;;;;;4971802;28;20248;-63
2023/09/10 11:54:18;;;;;;;14.00;10.65;;;27.20;99.90;;;;;;4972378;28;20196;-64
2023/09/10 11:56:53;;;;;;;23.98;12.43;;;27.30;99.90;;;;;;4966251;28;20574;-63
2023/09/10 11:59:29;;;;;;;24.40;12.32;;;27.30;99.90;;;;;;4966130;28;20242;-64
2023/09/10 12:01:55;;;;;;;22.33;12.18;;;27.30;99.90;;;;;;4966712;28;20216;-63
2023/09/10 12:04:31;;;;;;;18.90;10.45;;;27.30;99.90;;;;;;4970615;28;20232;-63
2023/09/10 12:06:58;;;;;;;15.70;10.60;;;27.40;99.90;;;;;;4971069;28;20237;-64
2023/09/10 12:09:27;;;;;;;13.55;9.27;;;27.40;99.90;;;;;;4968952;28;20177;-66
2023/09/10 12:11:54;;;;;;;23.35;11.20;;;27.50;99.90;;;;;;4962587;28;20681;-62
2023/09/10 12:14:22;;;;;;;19.17;11.05;;;27.50;99.90;;;;;;4965251;28;20193;-63
2023/09/10 12:16:48;;;;;;;19.40;11.43;;;27.50;99.90;;;;;;4954393;28;20208;-63
2023/09/10 12:19:15;;;;;;;21.00;11.50;;;27.60;99.90;;;;;;4971397;28;20228;-64
2023/09/10 12:21:42;;;;;;;29.85;16.40;;;27.70;99.90;;;;;;4971008;28;20201;-64
2023/09/10 12:24:09;;;;;;;23.30;11.23;;;27.70;99.90;;;;;;4963614;28;20301;-63
2023/09/10 12:26:35;;;;;;;20.23;10.55;;;27.70;99.90;;;;;;4968431;28;20371;-65